Time;durP1;ratioP1;P1;durP2;ratioP2;P2;SDS_P1;SDS_P2;PMS_P1;PMS_P2;Temp;Humidity;BMP_temperature;BMP_pressure;BME280_temperature;BME280_humidity;BME280_pressure;Samples;Min_cycle;Max_cycle;Signal;HPM_P1;HPM_P2
2023/09/17 00:01:08;;;;;;;28.20;17.90;;;;;;;;;;5090765;28;20134;-60
2023/09/17 00:03:35;;;;;;;32.95;17.77;;;;;;;;;;5090585;28;20048;-60
2023/09/17 00:06:02;;;;;;;25.67;17.48;;;;;;;;;;5090315;28;20148;-61
2023/09/17 00:08:28;;;;;;;21.23;15.25;;;;;;;;;;5090269;28;20044;-61
2023/09/17 00:10:54;;;;;;;22.38;15.63;;;;;;;;;;5090274;28;20630;-61
2023/09/17 00:13:21;;;;;;;20.67;15.27;;;;;;;;;;5090768;28;20067;-61
2023/09/17 00:15:48;;;;;;;23.95;16.30;;;;;;;;;;5090702;28;20040;-61
2023/09/17 00:18:15;;;;;;;21.95;14.82;;;;;;;;;;5090200;28;20123;-60
2023/09/17 00:20:41;;;;;;;21.10;14.27;;;;;;;;;;5090449;28;20108;-61
2023/09/17 00:23:08;;;;;;;21.30;14.45;;;;;;;;;;5090009;28;20105;-61
2023/09/17 00:25:35;;;;;;;21.65;14.60;;;;;;;;;;5090596;28;20105;-60
2023/09/17 00:28:01;;;;;;;19.42;14.07;;;;;;;;;;5090329;28;20079;-60
2023/09/17 00:30:28;;;;;;;21.13;15.30;;;;;;;;;;5090369;28;20144;-60
2023/09/17 00:32:54;;;;;;;22.08;15.40;;;;;;;;;;5089911;28;20067;-61
2023/09/17 00:35:21;;;;;;;19.85;16.27;;;;;;;;;;5090605;28;20048;-61
2023/09/17 00:37:47;;;;;;;18.65;15.27;;;;;;;;;;5089799;28;20133;-60
2023/09/17 00:40:14;;;;;;;18.52;14.60;;;;;;;;;;5089810;28;20043;-61
2023/09/17 00:42:40;;;;;;;19.33;15.63;;;;;;;;;;5089989;28;20052;-61
2023/09/17 00:45:07;;;;;;;21.55;15.38;;;;;;;;;;5090041;28;20048;-61
2023/09/17 00:47:34;;;;;;;23.38;13.95;;;;;;;;;;5089893;28;20044;-60
2023/09/17 00:50:01;;;;;;;20.85;14.68;;;;;;;;;;5089790;28;20051;-60
2023/09/17 00:52:27;;;;;;;17.98;14.35;;;;;;;;;;5089511;28;20110;-61
2023/09/17 00:54:55;;;;;;;19.30;13.70;;;;;;;;;;5089638;28;20040;-61
2023/09/17 00:57:22;;;;;;;20.55;13.50;;;;;;;;;;5089952;28;20044;-61
2023/09/17 00:59:48;;;;;;;19.42;14.57;;;;;;;;;;5089694;28;20048;-60
2023/09/17 01:02:20;;;;;;;19.17;13.95;;;;;;;;;;5089606;28;20055;-61
2023/09/17 01:04:49;;;;;;;18.00;14.30;;;;;;;;;;5089520;28;20047;-61
2023/09/17 01:07:16;;;;;;;25.05;14.85;;;;;;;;;;5089068;28;20048;-60
2023/09/17 01:09:43;;;;;;;22.40;15.30;;;;;;;;;;5089747;28;20048;-61
2023/09/17 01:12:10;;;;;;;20.98;14.75;;;;;;;;;;5089211;28;20070;-61
2023/09/17 01:14:37;;;;;;;22.10;15.68;;;;;;;;;;5089538;28;20044;-61
2023/09/17 01:17:10;;;;;;;23.30;15.30;;;;;;;;;;5089094;28;20122;-61
2023/09/17 01:19:38;;;;;;;27.80;16.13;;;;;;;;;;5089816;28;20109;-61
2023/09/17 01:22:06;;;;;;;25.02;15.57;;;;;;;;;;5089383;28;20040;-60
2023/09/17 01:24:53;;;;;;;25.38;16.15;;;;;;;;;;5089372;28;20060;-60
2023/09/17 01:27:20;;;;;;;18.08;14.98;;;;;;;;;;5088729;28;20465;-61
2023/09/17 01:29:46;;;;;;;20.95;15.45;;;;;;;;;;5089083;28;20044;-60
2023/09/17 01:32:14;;;;;;;19.08;15.07;;;;;;;;;;5088822;28;20097;-60
2023/09/17 01:34:42;;;;;;;21.02;15.82;;;;;;;;;;5088934;28;20108;-61
2023/09/17 01:37:10;;;;;;;22.05;15.13;;;;;;;;;;5088523;28;20047;-61
2023/09/17 01:39:41;;;;;;;23.40;15.45;;;;;;;;;;5088942;28;20122;-61
2023/09/17 01:42:08;;;;;;;23.63;15.90;;;;;;;;;;5089327;28;20040;-61
2023/09/17 01:44:35;;;;;;;21.27;14.88;;;;;;;;;;5088969;28;20078;-61
2023/09/17 01:47:03;;;;;;;23.23;14.60;;;;;;;;;;5088712;28;20571;-60
2023/09/17 01:49:32;;;;;;;20.35;15.40;;;;;;;;;;5088832;28;20051;-61
2023/09/17 01:51:58;;;;;;;20.83;16.05;;;;;;;;;;5088861;28;20476;-61
2023/09/17 01:54:25;;;;;;;23.40;16.67;;;;;;;;;;5088617;28;20040;-61
2023/09/17 01:56:51;;;;;;;21.70;16.30;;;;;;;;;;5088496;28;20104;-60
2023/09/17 01:59:18;;;;;;;19.00;14.27;;;;;;;;;;5088140;28;20457;-61
2023/09/17 02:01:44;;;;;;;22.85;15.77;;;;;;;;;;5089317;28;20044;-61
2023/09/17 02:04:11;;;;;;;21.33;15.75;;;;;;;;;;5086872;28;20048;-62
2023/09/17 02:06:38;;;;;;;22.52;15.27;;;;;;;;;;5088881;28;20051;-61
2023/09/17 02:09:05;;;;;;;20.80;15.75;;;;;;;;;;5088674;28;20616;-61
2023/09/17 02:11:32;;;;;;;19.33;14.05;;;;;;;;;;5088138;28;20604;-60
2023/09/17 02:13:59;;;;;;;28.20;16.88;;;;;;;;;;5088306;28;20052;-60
2023/09/17 02:16:26;;;;;;;21.17;14.35;;;;;;;;;;5088291;28;20565;-61
2023/09/17 02:18:52;;;;;;;22.10;15.48;;;;;;;;;;5088451;28;20044;-61
2023/09/17 02:21:19;;;;;;;22.30;14.45;;;;;;;;;;5088163;28;20491;-60
2023/09/17 02:23:45;;;;;;;20.42;14.38;;;;;;;;;;5087027;28;20188;-61
2023/09/17 02:26:12;;;;;;;18.08;14.52;;;;;;;;;;5088366;28;20082;-61
2023/09/17 02:28:38;;;;;;;18.38;13.57;;;;;;;;;;5088593;28;20547;-61
2023/09/17 02:31:06;;;;;;;21.17;14.82;;;;;;;;;;5088239;28;20581;-61
2023/09/17 02:33:32;;;;;;;21.05;13.50;;;;;;;;;;5087194;28;20503;-60
2023/09/17 02:35:59;;;;;;;19.15;14.32;;;;;;;;;;5087184;28;20079;-60
2023/09/17 02:38:26;;;;;;;16.40;12.80;;;;;;;;;;5088060;28;20044;-61
2023/09/17 02:40:52;;;;;;;18.50;13.93;;;;;;;;;;5088257;28;20040;-61
2023/09/17 02:43:19;;;;;;;20.70;13.98;;;;;;;;;;5087987;28;20051;-61
2023/09/17 02:45:46;;;;;;;19.13;14.15;;;;;;;;;;5088098;28;20047;-60
2023/09/17 02:48:12;;;;;;;17.45;13.57;;;;;;;;;;5088091;28;20122;-60
2023/09/17 02:50:42;;;;;;;19.92;13.25;;;;;;;;;;5088716;28;20048;-61
2023/09/17 02:53:08;;;;;;;20.02;12.82;;;;;;;;;;5087787;28;20036;-60
2023/09/17 02:55:34;;;;;;;23.13;13.82;;;;;;;;;;5088219;28;20080;-61
2023/09/17 02:58:02;;;;;;;19.75;13.02;;;;;;;;;;5087771;28;20447;-61
2023/09/17 03:00:34;;;;;;;17.33;12.90;;;;;;;;;;5087686;28;20048;-60
2023/09/17 03:03:06;;;;;;;20.13;13.52;;;;;;;;;;5087765;28;20119;-61
2023/09/17 03:05:33;;;;;;;19.05;13.40;;;;;;;;;;5087976;28;20579;-61
2023/09/17 03:07:59;;;;;;;21.45;13.82;;;;;;;;;;5088008;28;20090;-61
2023/09/17 03:10:26;;;;;;;19.58;13.32;;;;;;;;;;5088009;28;20040;-61
2023/09/17 03:12:53;;;;;;;16.95;12.18;;;;;;;;;;5088500;28;20050;-61
2023/09/17 03:15:19;;;;;;;17.73;13.38;;;;;;;;;;5090019;28;20076;-61
2023/09/17 03:17:47;;;;;;;18.73;13.27;;;;;;;;;;5092078;28;20046;-60
2023/09/17 03:20:14;;;;;;;18.48;12.80;;;;;;;;;;5091590;28;20040;-63
2023/09/17 03:22:40;;;;;;;18.95;13.23;;;;;;;;;;5091918;28;20089;-63
2023/09/17 03:25:07;;;;;;;19.63;11.93;;;;;;;;;;5091341;28;20040;-62
2023/09/17 03:27:34;;;;;;;17.60;13.50;;;;;;;;;;5091444;28;20040;-62
2023/09/17 03:30:03;;;;;;;17.52;12.90;;;;;;;;;;5091175;28;20079;-62
2023/09/17 03:32:30;;;;;;;18.63;14.18;;;;;;;;;;5091197;28;20085;-62
2023/09/17 03:34:57;;;;;;;17.67;12.63;;;;;;;;;;5091280;28;20043;-62
2023/09/17 03:37:24;;;;;;;20.88;12.52;;;;;;;;;;5091160;28;20050;-62
2023/09/17 03:40:12;;;;;;;21.58;15.13;;;;;;;;;;5091373;28;20126;-62
2023/09/17 03:42:39;;;;;;;17.00;13.27;;;;;;;;;;5090934;28;20598;-61
2023/09/17 03:45:09;;;;;;;21.98;15.57;;;;;;;;;;5090897;28;20471;-62
2023/09/17 03:47:36;;;;;;;20.38;13.82;;;;;;;;;;5090924;28;20129;-61
2023/09/17 03:50:04;;;;;;;19.65;14.30;;;;;;;;;;5091045;28;20607;-62
2023/09/17 03:52:31;;;;;;;16.90;13.32;;;;;;;;;;5091032;28;20075;-62
2023/09/17 03:54:58;;;;;;;19.70;14.88;;;;;;;;;;5090868;28;20051;-61
2023/09/17 03:57:24;;;;;;;20.10;15.35;;;;;;;;;;5090932;28;20083;-61
2023/09/17 03:59:51;;;;;;;21.92;15.00;;;;;;;;;;5091000;28;20083;-62
2023/09/17 04:02:17;;;;;;;17.67;13.00;;;;;;;;;;5090783;28;20098;-62
2023/09/17 04:04:44;;;;;;;16.40;13.23;;;;;;;;;;5090814;28;20544;-62
2023/09/17 04:07:10;;;;;;;16.77;13.00;;;;;;;;;;5090542;28;20044;-61
2023/09/17 04:09:37;;;;;;;18.83;12.68;;;;;;;;;;5090657;28;20119;-62
2023/09/17 04:12:04;;;;;;;20.52;12.93;;;;;;;;;;5090672;28;20044;-61
2023/09/17 04:14:34;;;;;;;18.98;13.52;;;;;;;;;;5090314;28;20123;-61
2023/09/17 04:17:01;;;;;;;17.65;14.13;;;;;;;;;;5090473;28;20567;-61
2023/09/17 04:19:31;;;;;;;17.48;13.65;;;;;;;;;;5090402;28;20052;-63
2023/09/17 04:21:58;;;;;;;20.07;14.77;;;;;;;;;;5091350;28;20036;-63
2023/09/17 04:24:25;;;;;;;20.83;14.73;;;;;;;;;;5091739;28;20105;-62
2023/09/17 04:26:53;;;;;;;19.23;14.32;;;;;;;;;;5089938;28;20043;-62
2023/09/17 04:29:19;;;;;;;19.90;13.45;;;;;;;;;;5090316;28;20046;-61
2023/09/17 04:31:51;;;;;;;22.20;14.25;;;;;;;;;;5089938;28;20085;-61
2023/09/17 04:34:18;;;;;;;21.58;15.02;;;;;;;;;;5090137;28;20051;-62
2023/09/17 04:36:44;;;;;;;19.23;14.20;;;;;;;;;;5090189;28;20113;-61
2023/09/17 04:39:14;;;;;;;19.52;13.15;;;;;;;;;;5090177;28;20040;-61
2023/09/17 04:41:40;;;;;;;20.25;14.07;;;;;;;;;;5090448;28;20078;-62
2023/09/17 04:44:10;;;;;;;17.33;13.95;;;;;;;;;;5090256;28;20487;-61
2023/09/17 04:46:39;;;;;;;22.15;14.15;;;;;;;;;;5090080;28;20055;-62
2023/09/17 04:49:06;;;;;;;19.77;13.43;;;;;;;;;;5090053;28;20101;-61
2023/09/17 04:51:36;;;;;;;20.08;14.13;;;;;;;;;;5089669;28;20450;-61
2023/09/17 04:54:02;;;;;;;19.02;14.18;;;;;;;;;;5089486;28;20040;-62
2023/09/17 04:56:32;;;;;;;20.55;13.63;;;;;;;;;;5089483;28;20539;-62
2023/09/17 04:58:59;;;;;;;16.95;13.77;;;;;;;;;;5089039;28;20502;-61
2023/09/17 05:01:26;;;;;;;20.08;14.48;;;;;;;;;;5089467;28;20097;-61
2023/09/17 05:03:53;;;;;;;17.65;13.77;;;;;;;;;;5089743;28;20047;-60
2023/09/17 05:06:20;;;;;;;18.33;14.65;;;;;;;;;;5090230;28;20135;-61
2023/09/17 05:08:46;;;;;;;23.98;13.57;;;;;;;;;;5089467;28;20096;-61
2023/09/17 05:11:12;;;;;;;16.38;13.07;;;;;;;;;;5089427;28;20127;-60
2023/09/17 05:13:39;;;;;;;20.25;15.38;;;;;;;;;;5088956;28;20100;-61
2023/09/17 05:16:06;;;;;;;31.95;15.88;;;;;;;;;;5089368;28;20047;-61
2023/09/17 05:18:32;;;;;;;18.90;14.80;;;;;;;;;;5089115;28;20119;-61
2023/09/17 05:20:59;;;;;;;20.23;14.60;;;;;;;;;;5089323;28;20066;-61
2023/09/17 05:23:25;;;;;;;23.40;14.95;;;;;;;;;;5088977;28;20040;-61
2023/09/17 05:25:51;;;;;;;20.60;15.63;;;;;;;;;;5089717;28;20117;-61
2023/09/17 05:28:18;;;;;;;18.95;14.45;;;;;;;;;;5089372;28;20040;-62
2023/09/17 05:30:45;;;;;;;18.20;13.80;;;;;;;;;;5089727;28;20078;-61
2023/09/17 05:33:11;;;;;;;19.90;13.73;;;;;;;;;;5089089;28;20089;-61
2023/09/17 05:35:37;;;;;;;17.48;12.90;;;;;;;;;;5088863;28;20044;-61
2023/09/17 05:38:04;;;;;;;20.38;13.85;;;;;;;;;;5088108;28;20425;-61
2023/09/17 05:40:31;;;;;;;18.45;14.23;;;;;;;;;;5088734;28;20098;-61
2023/09/17 05:42:57;;;;;;;18.75;14.15;;;;;;;;;;5088647;28;20044;-61
2023/09/17 05:45:25;;;;;;;20.50;14.63;;;;;;;;;;5088822;28;20135;-61
2023/09/17 05:47:52;;;;;;;20.90;13.88;;;;;;;;;;5088842;28;20036;-62
2023/09/17 05:50:18;;;;;;;20.23;14.10;;;;;;;;;;5089047;28;20055;-61
2023/09/17 05:52:45;;;;;;;17.70;14.55;;;;;;;;;;5089033;28;20618;-61
2023/09/17 05:55:11;;;;;;;17.63;14.50;;;;;;;;;;5088565;28;20561;-63
2023/09/17 05:57:38;;;;;;;20.92;15.52;;;;;;;;;;5088373;28;20497;-63
2023/09/17 06:00:05;;;;;;;17.10;12.85;;;;;;;;;;5088212;28;20052;-62
2023/09/17 06:02:32;;;;;;;19.17;14.60;;;;;;;;;;5088672;28;20717;-62
2023/09/17 06:04:58;;;;;;;20.23;14.90;;;;;;;;;;5088129;28;20062;-62
2023/09/17 06:07:26;;;;;;;17.83;13.88;;;;;;;;;;5088395;28;20049;-60
2023/09/17 06:09:53;;;;;;;20.02;15.27;;;;;;;;;;5088469;28;20043;-61
2023/09/17 06:12:19;;;;;;;20.35;14.32;;;;;;;;;;5088866;28;20127;-62
2023/09/17 06:14:46;;;;;;;21.73;15.70;;;;;;;;;;5088967;28;20044;-62
2023/09/17 06:17:13;;;;;;;22.55;14.77;;;;;;;;;;5088519;28;20093;-63
2023/09/17 06:19:39;;;;;;;19.90;14.13;;;;;;;;;;5088376;28;20089;-62
2023/09/17 06:22:06;;;;;;;21.70;15.35;;;;;;;;;;5088295;28;20047;-62
2023/09/17 06:24:32;;;;;;;18.70;14.80;;;;;;;;;;5088171;28;20075;-63
2023/09/17 06:26:59;;;;;;;22.00;14.50;;;;;;;;;;5087948;28;20068;-62
2023/09/17 06:29:25;;;;;;;19.77;14.88;;;;;;;;;;5088272;28;20130;-62
2023/09/17 06:31:51;;;;;;;20.42;15.05;;;;;;;;;;5087986;28;20070;-61
2023/09/17 06:34:18;;;;;;;24.63;16.98;;;;;;;;;;5088254;28;20044;-62
2023/09/17 06:36:45;;;;;;;26.42;16.70;;;;;;;;;;5088334;28;20052;-62
2023/09/17 06:39:12;;;;;;;23.38;17.58;;;;;;;;;;5087632;28;20071;-62
2023/09/17 06:41:39;;;;;;;19.15;15.60;;;;;;;;;;5087915;28;20040;-62
2023/09/17 06:44:08;;;;;;;21.57;15.90;;;;;;;;;;5087880;28;20040;-62
2023/09/17 06:46:35;;;;;;;20.27;16.40;;;;;;;;;;5088021;28;20044;-69
2023/09/17 06:49:01;;;;;;;20.08;15.93;;;;;;;;;;5087801;28;20043;-62
2023/09/17 06:51:28;;;;;;;24.10;15.55;;;;;;;;;;5091880;28;20050;-62
2023/09/17 06:53:54;;;;;;;21.92;16.83;;;;;;;;;;5091597;28;20497;-62
2023/09/17 06:56:23;;;;;;;24.67;16.55;;;;;;;;;;5092224;28;20043;-62
2023/09/17 06:58:50;;;;;;;22.48;14.80;;;;;;;;;;5091942;28;20052;-62
2023/09/17 07:01:17;;;;;;;22.15;15.13;;;;;;;;;;5091915;28;20123;-62
2023/09/17 07:03:44;;;;;;;20.88;16.10;;;;;;;;;;5089897;28;20040;-62
2023/09/17 07:06:10;;;;;;;18.98;14.60;;;;;;;;;;5091614;28;20044;-62
2023/09/17 07:08:37;;;;;;;17.70;14.63;;;;;;;;;;5091055;28;20036;-62
2023/09/17 07:11:04;;;;;;;18.50;14.10;;;;;;;;;;5091182;28;20039;-62
2023/09/17 07:13:31;;;;;;;19.23;15.52;;;;;;;;;;5091050;28;20075;-62
2023/09/17 07:15:57;;;;;;;22.55;14.65;;;;;;;;;;5090826;28;20087;-62
2023/09/17 07:18:26;;;;;;;19.95;15.10;;;;;;;;;;5091033;28;20044;-63
2023/09/17 07:20:52;;;;;;;19.88;15.77;;;;;;;;;;5091531;28;20051;-62
2023/09/17 07:23:19;;;;;;;16.48;13.63;;;;;;;;;;5091001;28;20093;-61
2023/09/17 07:25:45;;;;;;;25.30;14.75;;;;;;;;;;5090698;28;20478;-61
2023/09/17 07:28:12;;;;;;;18.23;14.20;;;;;;;;;;5090930;28;20040;-62
2023/09/17 07:30:39;;;;;;;16.60;13.20;;;;;;;;;;5090527;28;20125;-62
2023/09/17 07:33:05;;;;;;;17.42;13.70;;;;;;;;;;5090808;28;20044;-59
2023/09/17 07:35:32;;;;;;;16.63;12.52;;;;;;;;;;5090393;28;20044;-60
2023/09/17 07:38:02;;;;;;;20.13;13.32;;;;;;;;;;5090903;28;20336;-59
2023/09/17 07:40:28;;;;;;;20.25;14.10;;;;;;;;;;5090830;28;20367;-60
2023/09/17 07:42:54;;;;;;;16.20;13.73;;;;;;;;;;5090938;28;20716;-59
2023/09/17 07:45:21;;;;;;;16.30;13.43;;;;;;;;;;5090625;28;20488;-59
2023/09/17 07:47:47;;;;;;;16.35;12.27;;;;;;;;;;5090622;28;20130;-62
2023/09/17 07:50:15;;;;;;;15.90;11.95;;;;;;;;;;5090657;28;20040;-61
2023/09/17 07:52:42;;;;;;;17.00;13.10;;;;;;;;;;5090127;28;20044;-60
2023/09/17 07:55:08;;;;;;;16.95;12.57;;;;;;;;;;5090118;28;20476;-60
2023/09/17 07:57:35;;;;;;;17.48;13.07;;;;;;;;;;5090097;28;20568;-59
2023/09/17 08:00:02;;;;;;;18.23;13.63;;;;;;;;;;5090136;28;20421;-60
2023/09/17 08:02:29;;;;;;;18.48;11.70;;;;;;;;;;5088984;28;20126;-59
2023/09/17 08:04:55;;;;;;;13.93;11.18;;;;;;;;;;5090649;28;20048;-60
2023/09/17 08:07:22;;;;;;;14.35;10.77;;;;;;;;;;5089899;28;20047;-59
2023/09/17 08:09:49;;;;;;;14.90;11.77;;;;;;;;;;5089856;28;20036;-59
2023/09/17 08:12:16;;;;;;;17.95;11.18;;;;;;;;;;5089547;28;20044;-59
2023/09/17 08:14:48;;;;;;;13.32;10.07;;;;;;;;;;5089669;28;20138;-59
2023/09/17 08:17:14;;;;;;;11.98;9.77;;;;;;;;;;5089428;28;20055;-59
2023/09/17 08:19:41;;;;;;;13.55;9.82;;;;;;;;;;5089408;28;20396;-60
2023/09/17 08:22:07;;;;;;;14.27;9.85;;;;;;;;;;5089803;28;20066;-60
2023/09/17 08:24:34;;;;;;;11.05;9.30;;;;;;;;;;5089935;28;20044;-61
2023/09/17 08:27:00;;;;;;;13.60;9.50;;;;;;;;;;5089804;28;20040;-61
2023/09/17 08:29:27;;;;;;;12.45;9.88;;;;;;;;;;5089956;28;20126;-60
2023/09/17 08:31:53;;;;;;;14.68;10.38;;;;;;;;;;5089646;28;20080;-60
2023/09/17 08:34:20;;;;;;;13.13;9.35;;;;;;;;;;5089337;28;20047;-62
2023/09/17 08:36:48;;;;;;;14.07;9.43;;;;;;;;;;5089047;28;20578;-62
2023/09/17 08:39:14;;;;;;;9.82;8.50;;;;;;;;;;5089132;28;20051;-61
2023/09/17 08:41:41;;;;;;;12.27;9.38;;;;;;;;;;5088872;28;20048;-61
2023/09/17 08:44:08;;;;;;;12.68;9.40;;;;;;;;;;5088878;28;20140;-62
2023/09/17 08:46:35;;;;;;;10.77;8.38;;;;;;;;;;5089063;28;20136;-61
2023/09/17 08:49:02;;;;;;;9.25;7.93;;;;;;;;;;5088839;28;20052;-61
2023/09/17 08:51:30;;;;;;;9.35;7.80;;;;;;;;;;5089079;28;20040;-61
2023/09/17 08:53:57;;;;;;;13.55;9.60;;;;;;;;;;5089029;28;20075;-61
2023/09/17 08:56:24;;;;;;;12.68;8.25;;;;;;;;;;5088136;28;20044;-61
2023/09/17 08:58:52;;;;;;;10.55;8.30;;;;;;;;;;5088001;28;20135;-61
2023/09/17 09:01:21;;;;;;;13.40;8.38;;;;;;;;;;5087951;28;20055;-61
2023/09/17 09:03:49;;;;;;;18.40;8.45;;;;;;;;;;5088624;28;20054;-61
2023/09/17 09:06:17;;;;;;;11.85;8.20;;;;;;;;;;5087860;28;20040;-61
2023/09/17 09:08:44;;;;;;;11.88;7.97;;;;;;;;;;5088257;28;20040;-61
2023/09/17 09:11:10;;;;;;;8.85;7.32;;;;;;;;;;5088150;28;20122;-61
2023/09/17 09:13:38;;;;;;;12.75;7.65;;;;;;;;;;5088191;28;20039;-61
2023/09/17 09:16:05;;;;;;;10.02;7.25;;;;;;;;;;5087747;28;20388;-62
2023/09/17 09:18:31;;;;;;;14.65;7.22;;;;;;;;;;5087743;28;20040;-61
2023/09/17 09:20:58;;;;;;;8.18;6.75;;;;;;;;;;5087812;28;20141;-61
2023/09/17 09:23:25;;;;;;;9.23;6.90;;;;;;;;;;5087381;28;20134;-61
2023/09/17 09:25:51;;;;;;;7.53;6.45;;;;;;;;;;5087702;28;20139;-61
2023/09/17 09:28:18;;;;;;;8.60;6.20;;;;;;;;;;5087408;28;20148;-61
2023/09/17 09:30:45;;;;;;;13.70;7.00;;;;;;;;;;5087606;28;20080;-62
2023/09/17 09:33:12;;;;;;;12.82;6.78;;;;;;;;;;5087209;28;20126;-61
2023/09/17 09:35:39;;;;;;;8.85;6.43;;;;;;;;;;5088063;28;20048;-61
2023/09/17 09:38:10;;;;;;;8.75;6.38;;;;;;;;;;5087369;28;20050;-61
2023/09/17 09:40:38;;;;;;;11.13;6.20;;;;;;;;;;5087607;28;20538;-61
2023/09/17 09:43:04;;;;;;;15.43;6.28;;;;;;;;;;5086975;28;20048;-61
2023/09/17 09:45:32;;;;;;;10.25;6.50;;;;;;;;;;5087000;28;20502;-62
2023/09/17 09:47:58;;;;;;;7.75;6.28;;;;;;;;;;5086734;28;20136;-61
2023/09/17 09:50:26;;;;;;;8.20;6.38;;;;;;;;;;5087616;28;20144;-62
2023/09/17 09:52:54;;;;;;;11.93;6.57;;;;;;;;;;5085744;28;20460;-62
2023/09/17 09:55:24;;;;;;;13.48;6.50;;;;;;;;;;5087300;28;20131;-62
2023/09/17 09:57:54;;;;;;;10.02;6.40;;;;;;;;;;5087425;28;20442;-62
2023/09/17 10:00:26;;;;;;;8.93;6.07;;;;;;;;;;5086834;28;20044;-61
2023/09/17 10:02:53;;;;;;;6.43;5.57;;;;;;;;;;5087310;28;20039;-61
2023/09/17 10:05:37;;;;;;;10.52;6.13;;;;;;;;;;5087146;28;20040;-62
2023/09/17 10:08:04;;;;;;;7.05;5.40;;;;;;;;;;5086624;28;20362;-61
2023/09/17 10:10:31;;;;;;;9.73;6.78;;;;;;;;;;5086126;28;20491;-62
2023/09/17 10:13:00;;;;;;;7.68;5.18;;;;;;;;;;5085968;28;20056;-64
2023/09/17 10:15:26;;;;;;;7.18;5.57;;;;;;;;;;5086324;28;20043;-64
2023/09/17 10:17:53;;;;;;;19.27;6.75;;;;;;;;;;5086536;28;20070;-64
2023/09/17 10:20:21;;;;;;;27.90;8.02;;;;;;;;;;5085432;28;20686;-64
2023/09/17 10:22:48;;;;;;;10.27;6.63;;;;;;;;;;5084825;28;20083;-63
2023/09/17 10:25:16;;;;;;;13.60;8.43;;;;;;;;;;5084231;28;20048;-61
2023/09/17 10:27:43;;;;;;;16.45;9.82;;;;;;;;;;5084837;28;20135;-63
2023/09/17 10:30:12;;;;;;;7.60;5.32;;;;;;;;;;5084821;28;20460;-62
2023/09/17 10:32:38;;;;;;;9.63;6.05;;;;;;;;;;5084705;28;20059;-62
2023/09/17 10:35:06;;;;;;;11.73;7.20;;;;;;;;;;5083497;28;20417;-63
2023/09/17 10:37:35;;;;;;;25.35;6.63;;;;;;;;;;5084430;28;20035;-63
2023/09/17 10:40:02;;;;;;;9.38;6.32;;;;;;;;;;5085652;28;20446;-63
2023/09/17 10:42:30;;;;;;;10.25;5.22;;;;;;;;;;5086588;28;20094;-62
2023/09/17 10:44:57;;;;;;;12.10;7.10;;;;;;;;;;5086156;28;20101;-63
2023/09/17 10:47:25;;;;;;;7.63;5.32;;;;;;;;;;5085996;28;20120;-64
2023/09/17 10:49:51;;;;;;;10.27;5.97;;;;;;;;;;5086090;28;20052;-63
2023/09/17 10:52:19;;;;;;;6.05;4.20;;;;;;;;;;5084582;28;20726;-62
2023/09/17 10:54:46;;;;;;;9.73;5.18;;;;;;;;;;5085485;28;20131;-64
2023/09/17 10:57:27;;;;;;;5.68;4.65;;;;;;;;;;5085265;28;20044;-64
2023/09/17 10:59:55;;;;;;;9.13;4.50;;;;;;;;;;5085332;28;20135;-63
2023/09/17 11:02:22;;;;;;;12.13;4.82;;;;;;;;;;5085602;28;20348;-63
2023/09/17 11:04:50;;;;;;;5.97;4.68;;;;;;;;;;5085575;28;20048;-63
2023/09/17 11:07:17;;;;;;;15.73;8.77;;;;;;;;;;5085908;28;20059;-64
2023/09/17 11:09:45;;;;;;;11.70;6.07;;;;;;;;;;5085329;28;20136;-63
2023/09/17 11:12:12;;;;;;;8.10;4.38;;;;;;;;;;5085212;28;20051;-65
2023/09/17 11:14:40;;;;;;;8.88;4.30;;;;;;;;;;5084753;28;20044;-63
2023/09/17 11:17:09;;;;;;;7.72;6.05;;;;;;;;;;5083979;28;20032;-63
2023/09/17 11:19:36;;;;;;;9.27;3.88;;;;;;;;;;5083011;28;20087;-65
2023/09/17 11:22:04;;;;;;;6.28;4.00;;;;;;;;;;5083720;28;20040;-64
2023/09/17 11:24:32;;;;;;;5.57;3.53;;;;;;;;;;5082180;28;20101;-65
2023/09/17 11:27:01;;;;;;;6.68;4.20;;;;;;;;;;5084038;28;20052;-64
2023/09/17 11:29:45;;;;;;;8.97;5.30;;;;;;;;;;5084964;28;20050;-65
2023/09/17 11:32:20;;;;;;;10.73;5.80;;;;;;;;;;5083867;28;20131;-65
2023/09/17 11:34:48;;;;;;;7.82;4.55;;;;;;;;;;5083947;28;20123;-64
2023/09/17 11:37:17;;;;;;;10.35;5.07;;;;;;;;;;5083759;28;20047;-67
2023/09/17 11:39:50;;;;;;;6.15;3.47;;;;;;;;;;5087528;28;20151;-65
2023/09/17 11:42:17;;;;;;;6.70;3.95;;;;;;;;;;5087075;28;20036;-63
2023/09/17 11:44:44;;;;;;;11.73;4.10;;;;;;;;;;5087050;28;20066;-65
2023/09/17 11:47:12;;;;;;;7.35;4.10;;;;;;;;;;5086730;28;20117;-64
2023/09/17 11:49:40;;;;;;;14.63;8.10;;;;;;;;;;5087073;28;20048;-64
2023/09/17 11:52:10;;;;;;;10.15;5.75;;;;;;;;;;5087581;28;20145;-63
2023/09/17 11:54:46;;;;;;;9.85;3.50;;;;;;;;;;5087391;28;20160;-63
2023/09/17 11:57:12;;;;;;;11.40;8.85;;;;;;;;;;5086401;28;20105;-64
2023/09/17 11:59:39;;;;;;;8.70;3.75;;;;;;;;;;5086845;28;20147;-65
2023/09/17 12:02:06;;;;;;;4.07;3.50;;;;;;;;;;5087260;28;20383;-64
2023/09/17 12:04:37;;;;;;;4.53;3.25;;;;;;;;;;5087669;28;20052;-64
2023/09/17 12:07:11;;;;;;;5.40;3.47;;;;;;;;;;5087665;28;20051;-65
2023/09/17 12:12:13;;;;;;;4.30;3.72;;;;;;;;;;5087043;28;20139;-64
2023/09/17 12:14:41;;;;;;;8.02;3.17;;;;;;;;;;5087938;28;20051;-64
2023/09/17 12:17:07;;;;;;;4.00;3.22;;;;;;;;;;5087152;28;20136;-64
2023/09/17 12:19:34;;;;;;;5.28;4.38;;;;;;;;;;5088939;28;20040;-63
2023/09/17 12:22:01;;;;;;;7.18;4.50;;;;;;;;;;5084235;28;20668;-62
2023/09/17 12:24:34;;;;;;;6.55;4.75;;;;;;;;;;5084661;28;20048;-63
2023/09/17 12:29:40;;;;;;;6.72;4.03;;;;;;;;;;5086429;28;20123;-63
2023/09/17 12:32:08;;;;;;;7.40;3.70;;;;;;;;;;5087125;28;20050;-64
2023/09/17 12:34:34;;;;;;;9.65;4.40;;;;;;;;;;5086838;28;20040;-63
2023/09/17 12:37:01;;;;;;;6.53;3.97;;;;;;;;;;5086904;28;20055;-64
2023/09/17 12:39:28;;;;;;;6.97;4.25;;;;;;;;;;5086133;28;20044;-65
2023/09/17 12:41:54;;;;;;;10.02;5.20;;;;;;;;;;5086312;28;20040;-64
2023/09/17 12:44:22;;;;;;;8.48;4.43;;;;;;;;;;5085587;28;20188;-65
2023/09/17 12:46:48;;;;;;;9.45;4.30;;;;;;;;;;5085755;28;20097;-65
2023/09/17 12:49:15;;;;;;;6.80;3.35;;;;;;;;;;5085880;28;20109;-62
2023/09/17 12:51:41;;;;;;;6.30;4.20;;;;;;;;;;5086257;28;20113;-62
2023/09/17 12:54:08;;;;;;;3.97;3.40;;;;;;;;;;5085732;28;20040;-63
2023/09/17 12:56:36;;;;;;;4.68;3.38;;;;;;;;;;5086157;28;20102;-62
2023/09/17 12:59:03;;;;;;;5.78;3.70;;;;;;;;;;5086049;28;20139;-62
2023/09/17 13:01:32;;;;;;;6.85;4.82;;;;;;;;;;5086728;28;20047;-63
2023/09/17 13:04:03;;;;;;;7.97;3.92;;;;;;;;;;5085964;28;20052;-64
2023/09/17 13:06:33;;;;;;;6.45;3.78;;;;;;;;;;5085656;28;20044;-64
2023/09/17 13:09:02;;;;;;;7.75;3.45;;;;;;;;;;5085694;28;20036;-63
2023/09/17 13:11:28;;;;;;;6.75;3.67;;;;;;;;;;5085696;28;20417;-61
2023/09/17 13:13:56;;;;;;;6.65;3.15;;;;;;;;;;5084983;28;20425;-63
2023/09/17 13:16:24;;;;;;;12.27;3.72;;;;;;;;;;5085308;28;20656;-63
2023/09/17 13:18:51;;;;;;;5.68;3.58;;;;;;;;;;5085745;28;20488;-62
2023/09/17 13:21:18;;;;;;;8.65;3.15;;;;;;;;;;5086415;28;20044;-66
2023/09/17 13:23:44;;;;;;;3.95;3.38;;;;;;;;;;5084586;28;20064;-63
2023/09/17 13:26:11;;;;;;;18.27;10.02;;;;;;;;;;5086050;28;20083;-61
2023/09/17 13:28:39;;;;;;;28.20;18.75;;;;;;;;;;5086119;28;20047;-65
2023/09/17 13:31:07;;;;;;;22.80;18.98;;;;;;;;;;5086153;28;20477;-63
2023/09/17 13:33:34;;;;;;;15.82;10.82;;;;;;;;;;5086008;28;20044;-63
2023/09/17 13:36:01;;;;;;;12.25;5.53;;;;;;;;;;5086171;28;20108;-65
2023/09/17 13:38:28;;;;;;;8.88;3.28;;;;;;;;;;5085800;28;20134;-66
2023/09/17 13:40:54;;;;;;;6.63;3.55;;;;;;;;;;5086005;28;20385;-66
2023/09/17 13:43:21;;;;;;;5.72;3.00;;;;;;;;;;5084279;28;20215;-67
2023/09/17 13:45:50;;;;;;;4.63;2.70;;;;;;;;;;5083610;28;20032;-66
2023/09/17 13:48:17;;;;;;;5.30;3.17;;;;;;;;;;5084192;28;20755;-66
2023/09/17 13:50:44;;;;;;;4.85;2.45;;;;;;;;;;5084719;28;20044;-66
2023/09/17 13:53:11;;;;;;;5.80;4.55;;;;;;;;;;5084167;28;20502;-66
2023/09/17 13:55:38;;;;;;;5.63;3.40;;;;;;;;;;5084819;28;20074;-66
2023/09/17 13:58:04;;;;;;;4.15;2.83;;;;;;;;;;5084864;28;20044;-63
2023/09/17 14:00:31;;;;;;;4.20;2.45;;;;;;;;;;5084890;28;20140;-65
2023/09/17 14:03:07;;;;;;;6.20;3.47;;;;;;;;;;5086007;28;20039;-65
2023/09/17 14:05:33;;;;;;;4.78;3.13;;;;;;;;;;5086151;28;20112;-65
2023/09/17 14:08:00;;;;;;;12.35;6.47;;;;;;;;;;5085787;28;20040;-64
2023/09/17 14:10:27;;;;;;;5.18;2.72;;;;;;;;;;5085490;28;20047;-65
2023/09/17 14:12:53;;;;;;;3.58;2.30;;;;;;;;;;5085458;28;20044;-63
2023/09/17 14:15:21;;;;;;;3.55;2.25;;;;;;;;;;5085647;28;20464;-62
2023/09/17 14:17:48;;;;;;;8.90;4.00;;;;;;;;;;5085941;28;20577;-66
2023/09/17 14:20:15;;;;;;;10.40;4.65;;;;;;;;;;5086365;28;20135;-66
2023/09/17 14:22:41;;;;;;;6.28;4.38;;;;;;;;;;5084103;28;20089;-64
2023/09/17 14:25:09;;;;;;;12.95;10.82;;;;;;;;;;5085673;28;20134;-64
2023/09/17 14:27:36;;;;;;;8.02;4.45;;;;;;;;;;5086047;28;20468;-63
2023/09/17 14:30:05;;;;;;;4.18;2.50;;;;;;;;;;5085961;28;20036;-66
2023/09/17 14:32:31;;;;;;;3.35;2.45;;;;;;;;;;5086048;28;20462;-64